Time;durP1;ratioP1;P1;durP2;ratioP2;P2;SDS_P1;SDS_P2;PMS_P1;PMS_P2;Temp;Humidity;BMP_temperature;BMP_pressure;BME280_temperature;BME280_humidity;BME280_pressure;Samples;Min_cycle;Max_cycle;Signal;HPM_P1;HPM_P2
2023/01/19 00:00:23;;;;;;;23.55;8.65;;;;;;;;;;4991035;28;20045;-59
2023/01/19 00:02:49;;;;;;;24.97;8.93;;;;;;;;;;4993302;28;20057;-60
2023/01/19 00:05:14;;;;;;;22.70;8.40;;;;;;;;;;4992853;28;20870;-57
2023/01/19 00:07:39;;;;;;;20.10;8.33;;;;;;;;;;4992915;28;20552;-57
2023/01/19 00:10:05;;;;;;;26.53;9.50;;;;;;;;;;4992064;28;20018;-58
2023/01/19 00:12:30;;;;;;;21.33;8.93;;;;;;;;;;4990744;28;20081;-58
2023/01/19 00:14:55;;;;;;;25.60;9.10;;;;;;;;;;4992386;28;20383;-58
2023/01/19 00:17:20;;;;;;;25.98;9.52;;;;;;;;;;4993436;28;20031;-58
2023/01/19 00:19:45;;;;;;;23.38;8.75;;;;;;;;;;4992145;28;20038;-58
2023/01/19 00:22:11;;;;;;;27.73;9.85;;;;;;;;;;4993648;28;20471;-59
2023/01/19 00:24:36;;;;;;;26.33;10.05;;;;;;;;;;4991411;28;20038;-58
2023/01/19 00:27:02;;;;;;;25.93;9.63;;;;;;;;;;4993346;28;20029;-58
2023/01/19 00:29:32;;;;;;;25.50;9.88;;;;;;;;;;4990653;28;20022;-58
2023/01/19 00:31:57;;;;;;;26.00;10.05;;;;;;;;;;4992031;28;20023;-58
2023/01/19 00:34:22;;;;;;;23.58;9.38;;;;;;;;;;4991389;28;20099;-58
2023/01/19 00:36:47;;;;;;;23.60;8.75;;;;;;;;;;4991846;28;20028;-58
2023/01/19 00:39:12;;;;;;;22.20;8.73;;;;;;;;;;4992077;28;20018;-58
2023/01/19 00:44:21;;;;;;;23.35;9.15;;;;;;;;;;4990727;28;20064;-61
2023/01/19 00:46:46;;;;;;;26.33;9.73;;;;;;;;;;4992792;28;20038;-59
2023/01/19 00:49:11;;;;;;;25.15;8.77;;;;;;;;;;4991703;28;20038;-59
2023/01/19 00:51:37;;;;;;;22.40;9.18;;;;;;;;;;4990408;28;20391;-60
2023/01/19 00:54:03;;;;;;;23.13;9.47;;;;;;;;;;4991595;28;20081;-59
2023/01/19 00:56:31;;;;;;;25.60;10.43;;;;;;;;;;4990797;28;20098;-59
2023/01/19 00:58:56;;;;;;;26.38;9.57;;;;;;;;;;4991387;28;20076;-57
2023/01/19 01:01:22;;;;;;;25.33;9.30;;;;;;;;;;4989567;28;20038;-58
2023/01/19 01:03:47;;;;;;;22.00;9.23;;;;;;;;;;4991505;28;20026;-58
2023/01/19 01:06:12;;;;;;;24.20;9.47;;;;;;;;;;4992352;28;20109;-59
2023/01/19 01:08:37;;;;;;;23.73;9.30;;;;;;;;;;4990082;28;20023;-60
2023/01/19 01:11:02;;;;;;;23.60;9.05;;;;;;;;;;4990574;28;20372;-61
2023/01/19 01:13:28;;;;;;;21.20;8.93;;;;;;;;;;4990969;28;20023;-58
2023/01/19 01:15:53;;;;;;;25.85;9.38;;;;;;;;;;4991343;28;20076;-58
2023/01/19 01:18:19;;;;;;;23.40;9.23;;;;;;;;;;4990749;28;20026;-60
2023/01/19 01:20:44;;;;;;;25.63;9.55;;;;;;;;;;4991562;28;20046;-60
2023/01/19 01:23:09;;;;;;;22.80;10.10;;;;;;;;;;4991350;28;20029;-59
2023/01/19 01:25:36;;;;;;;22.27;9.82;;;;;;;;;;4990871;28;20459;-58
2023/01/19 01:28:03;;;;;;;30.23;10.40;;;;;;;;;;4992123;28;20076;-60
2023/01/19 01:30:28;;;;;;;;;;;;;;;;;;4991590;28;20045;-59
2023/01/19 01:32:54;;;;;;;23.17;8.70;;;;;;;;;;4990215;28;19914;-59
2023/01/19 01:35:19;;;;;;;18.52;7.68;;;;;;;;;;4991088;28;20563;-61
2023/01/19 01:37:44;;;;;;;22.47;9.07;;;;;;;;;;4990242;28;20026;-62
2023/01/19 01:40:11;;;;;;;19.50;8.07;;;;;;;;;;4988388;28;20129;-60
2023/01/19 01:42:36;;;;;;;25.92;9.07;;;;;;;;;;4989851;28;20034;-57
2023/01/19 01:45:04;;;;;;;17.00;7.40;;;;;;;;;;4991760;28;20117;-58
2023/01/19 01:47:33;;;;;;;18.17;7.95;;;;;;;;;;4989486;28;20023;-57
2023/01/19 01:50:04;;;;;;;22.50;8.73;;;;;;;;;;4991417;28;20388;-59
2023/01/19 01:52:31;;;;;;;22.95;8.55;;;;;;;;;;4990779;28;20737;-60
2023/01/19 01:54:56;;;;;;;20.92;7.93;;;;;;;;;;4990352;28;20076;-58
2023/01/19 01:57:21;;;;;;;17.50;7.43;;;;;;;;;;4986303;28;20015;-61
2023/01/19 01:59:47;;;;;;;23.02;9.07;;;;;;;;;;4979807;28;20030;-58
2023/01/19 02:05:14;;;;;;;20.10;7.88;;;;;;;;;;4987409;28;20033;-59
2023/01/19 02:13:24;;;;;;;19.13;7.93;;;;;;;;;;4989820;28;20025;-61
2023/01/19 02:15:51;;;;;;;22.40;8.20;;;;;;;;;;4988218;28;20034;-59
2023/01/19 02:18:16;;;;;;;19.65;7.32;;;;;;;;;;4989005;28;20038;-59
2023/01/19 02:20:46;;;;;;;16.27;6.63;;;;;;;;;;4990079;28;20033;-62
2023/01/19 02:23:15;;;;;;;15.88;6.75;;;;;;;;;;4989952;28;20111;-60
2023/01/19 02:25:40;;;;;;;19.50;7.32;;;;;;;;;;4989444;28;20439;-63
2023/01/19 02:28:06;;;;;;;16.80;7.37;;;;;;;;;;4986924;28;20395;-59
2023/01/19 02:30:32;;;;;;;20.73;7.70;;;;;;;;;;4988195;28;20026;-60
2023/01/19 02:32:57;;;;;;;17.08;7.18;;;;;;;;;;4989257;28;20045;-61
2023/01/19 02:35:22;;;;;;;16.80;7.38;;;;;;;;;;4990610;28;20073;-59
2023/01/19 02:37:47;;;;;;;16.58;7.70;;;;;;;;;;4989861;28;20455;-62
2023/01/19 02:40:14;;;;;;;16.70;7.57;;;;;;;;;;4989383;28;20029;-60
2023/01/19 02:42:43;;;;;;;18.45;7.15;;;;;;;;;;4990251;28;20029;-62
2023/01/19 02:45:11;;;;;;;17.52;7.32;;;;;;;;;;4989732;28;20329;-59
2023/01/19 02:47:46;;;;;;;19.00;7.38;;;;;;;;;;4989295;28;20529;-60
2023/01/19 02:50:30;;;;;;;16.15;6.55;;;;;;;;;;4990382;28;20084;-59
2023/01/19 02:52:59;;;;;;;19.48;7.10;;;;;;;;;;4989544;28;20022;-60
2023/01/19 02:55:26;;;;;;;17.17;7.47;;;;;;;;;;4990232;28;20576;-59
2023/01/19 02:57:56;;;;;;;20.50;7.22;;;;;;;;;;4989011;28;20064;-60
2023/01/19 03:00:36;;;;;;;20.83;6.97;;;;;;;;;;4988596;28;20109;-59
2023/01/19 03:03:20;;;;;;;20.25;7.85;;;;;;;;;;4989324;28;20034;-60
2023/01/19 03:05:52;;;;;;;16.20;7.35;;;;;;;;;;4990720;28;20026;-66
2023/01/19 03:08:23;;;;;;;19.63;8.35;;;;;;;;;;4988721;28;20027;-61
2023/01/19 03:10:56;;;;;;;18.75;7.80;;;;;;;;;;4988973;28;20032;-60
2023/01/19 03:13:40;;;;;;;21.77;9.07;;;;;;;;;;4989684;28;20029;-61
2023/01/19 03:16:15;;;;;;;20.02;8.10;;;;;;;;;;4988574;28;20053;-60
2023/01/19 03:18:42;;;;;;;20.02;7.93;;;;;;;;;;4990057;28;20026;-66
2023/01/19 03:21:09;;;;;;;23.63;8.57;;;;;;;;;;4989038;28;20050;-61
2023/01/19 03:23:35;;;;;;;25.25;9.13;;;;;;;;;;4989158;28;20031;-60
2023/01/19 03:26:01;;;;;;;23.20;8.43;;;;;;;;;;4990503;28;20022;-59
2023/01/19 03:28:28;;;;;;;20.42;8.55;;;;;;;;;;4988004;28;20387;-60
2023/01/19 03:30:56;;;;;;;20.70;8.45;;;;;;;;;;4989392;28;20022;-59
2023/01/19 03:33:26;;;;;;;25.05;9.23;;;;;;;;;;4989303;28;20080;-61
2023/01/19 03:35:52;;;;;;;24.33;9.13;;;;;;;;;;4989617;28;20117;-60
2023/01/19 03:38:20;;;;;;;20.77;7.85;;;;;;;;;;4988839;28;20027;-62
2023/01/19 03:40:46;;;;;;;25.10;8.80;;;;;;;;;;4987988;28;20632;-59
2023/01/19 03:43:14;;;;;;;22.42;8.73;;;;;;;;;;4989292;28;20033;-59
2023/01/19 03:45:40;;;;;;;27.20;8.70;;;;;;;;;;4969222;28;20168;-59
2023/01/19 03:48:06;;;;;;;31.77;8.90;;;;;;;;;;4989147;28;20495;-59
2023/01/19 03:50:31;;;;;;;24.42;8.82;;;;;;;;;;4989495;28;20030;-61
2023/01/19 03:53:09;;;;;;;26.20;9.23;;;;;;;;;;4989135;28;20018;-60
2023/01/19 03:55:35;;;;;;;27.73;9.13;;;;;;;;;;4987999;28;20042;-60
2023/01/19 03:58:00;;;;;;;26.40;9.68;;;;;;;;;;4988101;28;20027;-59
2023/01/19 04:00:25;;;;;;;22.98;8.60;;;;;;;;;;4981598;28;20030;-61
2023/01/19 04:02:50;;;;;;;22.07;9.00;;;;;;;;;;4988644;28;20383;-60
2023/01/19 04:05:16;;;;;;;20.63;7.60;;;;;;;;;;4990558;28;20109;-59
2023/01/19 04:07:41;;;;;;;20.83;8.10;;;;;;;;;;4993620;28;20492;-60
2023/01/19 04:10:11;;;;;;;18.47;7.67;;;;;;;;;;4989537;28;20476;-61
2023/01/19 04:12:36;;;;;;;23.90;8.82;;;;;;;;;;4992851;28;20097;-61
2023/01/19 04:15:02;;;;;;;23.63;8.67;;;;;;;;;;4988593;28;20451;-59
2023/01/19 04:17:27;;;;;;;20.25;7.43;;;;;;;;;;4993601;28;20030;-59
2023/01/19 04:19:52;;;;;;;22.40;7.80;;;;;;;;;;4992143;28;20053;-60
2023/01/19 04:22:17;;;;;;;23.33;8.35;;;;;;;;;;4991669;28;20030;-59
2023/01/19 04:24:42;;;;;;;18.70;7.32;;;;;;;;;;4991973;28;20057;-60
2023/01/19 04:27:07;;;;;;;20.90;7.47;;;;;;;;;;4990493;28;20023;-58
2023/01/19 04:29:32;;;;;;;20.35;8.02;;;;;;;;;;4986947;28;20030;-59
2023/01/19 04:31:58;;;;;;;19.83;7.43;;;;;;;;;;4987168;28;20050;-59
2023/01/19 04:34:23;;;;;;;18.95;7.45;;;;;;;;;;4985790;28;20034;-59
2023/01/19 04:36:50;;;;;;;20.20;7.47;;;;;;;;;;4992855;28;20027;-60
2023/01/19 04:39:15;;;;;;;18.65;7.03;;;;;;;;;;4992460;28;20034;-60
2023/01/19 04:41:40;;;;;;;19.30;6.77;;;;;;;;;;4993053;28;20094;-59
2023/01/19 04:44:05;;;;;;;18.00;6.90;;;;;;;;;;4992514;28;20080;-61
2023/01/19 04:46:30;;;;;;;19.43;7.23;;;;;;;;;;4993364;28;20018;-58
2023/01/19 04:48:56;;;;;;;22.63;7.05;;;;;;;;;;4991587;28;20026;-61
2023/01/19 04:51:21;;;;;;;20.90;7.23;;;;;;;;;;4991941;28;20109;-59
2023/01/19 04:53:46;;;;;;;14.87;6.27;;;;;;;;;;4991264;28;20081;-62
2023/01/19 04:56:11;;;;;;;19.87;7.07;;;;;;;;;;4987386;28;20126;-61
2023/01/19 04:58:36;;;;;;;15.35;6.13;;;;;;;;;;4990874;28;20015;-59
2023/01/19 05:01:05;;;;;;;20.80;7.40;;;;;;;;;;4987909;28;20053;-60
2023/01/19 05:03:30;;;;;;;16.80;6.78;;;;;;;;;;4991465;28;20030;-58
2023/01/19 05:05:55;;;;;;;19.57;7.00;;;;;;;;;;4990905;28;20018;-60
2023/01/19 05:08:21;;;;;;;22.52;7.38;;;;;;;;;;4991956;28;20062;-59
2023/01/19 05:10:46;;;;;;;18.67;6.68;;;;;;;;;;4987882;28;20023;-60
2023/01/19 05:13:12;;;;;;;14.55;6.35;;;;;;;;;;4988298;28;20105;-61
2023/01/19 05:15:38;;;;;;;20.83;7.55;;;;;;;;;;4992651;28;20042;-59
2023/01/19 05:18:03;;;;;;;18.00;6.80;;;;;;;;;;4988952;28;20438;-63
2023/01/19 05:20:28;;;;;;;19.58;6.90;;;;;;;;;;4991275;28;20026;-60
2023/01/19 05:22:53;;;;;;;21.60;7.00;;;;;;;;;;4990623;28;20046;-63
2023/01/19 05:25:18;;;;;;;20.25;7.25;;;;;;;;;;4992261;28;20135;-59
2023/01/19 05:27:44;;;;;;;17.33;7.10;;;;;;;;;;4992741;28;20554;-61
2023/01/19 05:30:09;;;;;;;20.20;6.60;;;;;;;;;;4990275;28;20026;-59
2023/01/19 05:32:34;;;;;;;22.48;7.65;;;;;;;;;;4984440;28;20034;-58
2023/01/19 05:35:00;;;;;;;17.10;6.32;;;;;;;;;;4988970;28;20041;-61
2023/01/19 05:37:25;;;;;;;19.63;7.20;;;;;;;;;;4990915;28;20026;-60
2023/01/19 05:39:50;;;;;;;18.48;6.57;;;;;;;;;;4992324;28;20118;-64
2023/01/19 05:42:15;;;;;;;17.83;6.47;;;;;;;;;;4997077;28;20744;-62
2023/01/19 05:44:41;;;;;;;15.13;6.13;;;;;;;;;;4997958;28;20038;-62
2023/01/19 05:47:06;;;;;;;19.27;6.57;;;;;;;;;;4995563;28;20026;-62
2023/01/19 05:49:31;;;;;;;15.75;6.28;;;;;;;;;;4989355;28;20039;-61
2023/01/19 05:51:56;;;;;;;19.33;6.03;;;;;;;;;;4988554;28;20018;-62
2023/01/19 05:54:21;;;;;;;17.17;6.37;;;;;;;;;;4988127;28;20038;-62
2023/01/19 05:56:46;;;;;;;21.23;6.93;;;;;;;;;;4988506;28;20023;-60
2023/01/19 05:59:11;;;;;;;19.20;6.57;;;;;;;;;;4987648;28;20464;-60
2023/01/19 06:01:37;;;;;;;16.65;6.25;;;;;;;;;;4986976;28;20018;-64
2023/01/19 06:04:02;;;;;;;16.60;6.20;;;;;;;;;;4988270;28;20134;-61
2023/01/19 06:06:27;;;;;;;17.95;6.45;;;;;;;;;;4985745;28;20041;-59
2023/01/19 06:08:53;;;;;;;15.03;6.33;;;;;;;;;;4986418;28;20587;-61
2023/01/19 06:11:18;;;;;;;16.73;6.03;;;;;;;;;;4988650;28;20034;-59
2023/01/19 06:13:43;;;;;;;18.27;6.35;;;;;;;;;;4985382;28;20368;-60
2023/01/19 06:16:09;;;;;;;16.45;6.15;;;;;;;;;;4990287;28;20027;-60
2023/01/19 06:18:34;;;;;;;16.90;6.30;;;;;;;;;;4989262;28;20038;-59
2023/01/19 06:21:03;;;;;;;17.43;6.03;;;;;;;;;;4990391;28;20040;-61
2023/01/19 06:23:29;;;;;;;15.65;6.10;;;;;;;;;;4989578;28;20018;-61
2023/01/19 06:25:55;;;;;;;15.38;5.20;;;;;;;;;;4990806;28;20022;-59
2023/01/19 06:28:20;;;;;;;15.68;5.55;;;;;;;;;;4990657;28;20045;-62
2023/01/19 06:30:49;;;;;;;13.23;5.30;;;;;;;;;;4989724;28;20018;-60
2023/01/19 06:33:15;;;;;;;14.80;5.25;;;;;;;;;;4991131;28;20022;-60
2023/01/19 06:35:43;;;;;;;13.48;4.93;;;;;;;;;;4991613;28;20038;-58
2023/01/19 06:38:08;;;;;;;15.13;5.60;;;;;;;;;;4991349;28;20423;-58
2023/01/19 06:40:34;;;;;;;12.07;4.20;;;;;;;;;;4990447;28;20036;-60
2023/01/19 06:42:59;;;;;;;12.43;4.72;;;;;;;;;;4991523;28;20475;-58
2023/01/19 06:45:24;;;;;;;13.93;5.22;;;;;;;;;;4990321;28;20575;-59
2023/01/19 06:47:49;;;;;;;13.75;4.53;;;;;;;;;;4988740;28;20027;-59
2023/01/19 06:50:14;;;;;;;12.57;4.30;;;;;;;;;;4987936;28;20026;-60
2023/01/19 06:52:41;;;;;;;15.05;4.82;;;;;;;;;;4991341;28;20014;-58
2023/01/19 06:55:09;;;;;;;13.68;4.55;;;;;;;;;;4990459;28;20038;-57
2023/01/19 06:57:34;;;;;;;13.52;4.70;;;;;;;;;;4990222;28;20526;-59
2023/01/19 07:00:00;;;;;;;10.32;4.38;;;;;;;;;;4982276;28;20038;-58
2023/01/19 07:02:26;;;;;;;12.48;4.57;;;;;;;;;;4989943;28;20105;-59
2023/01/19 07:04:51;;;;;;;13.23;4.40;;;;;;;;;;4983863;28;20182;-58
2023/01/19 07:07:16;;;;;;;13.35;4.68;;;;;;;;;;4990326;28;20037;-58
2023/01/19 07:09:41;;;;;;;13.73;4.93;;;;;;;;;;4989955;28;20026;-67
2023/01/19 07:12:06;;;;;;;12.35;4.43;;;;;;;;;;4990033;28;20069;-61
2023/01/19 07:14:32;;;;;;;11.90;4.80;;;;;;;;;;4988589;28;20033;-59
2023/01/19 07:16:58;;;;;;;12.45;5.03;;;;;;;;;;4989472;28;20018;-59
2023/01/19 07:19:23;;;;;;;12.77;4.73;;;;;;;;;;4989563;28;20399;-60
2023/01/19 07:21:48;;;;;;;11.13;4.23;;;;;;;;;;4990644;28;20062;-60
2023/01/19 07:24:13;;;;;;;11.68;4.80;;;;;;;;;;4990258;28;20435;-61
2023/01/19 07:26:38;;;;;;;17.80;5.27;;;;;;;;;;4979719;28;20372;-57
2023/01/19 07:29:03;;;;;;;14.27;5.10;;;;;;;;;;4976979;28;20053;-61
2023/01/19 07:31:28;;;;;;;14.48;4.60;;;;;;;;;;4989219;28;21986;-59
2023/01/19 07:33:54;;;;;;;16.20;5.28;;;;;;;;;;4990407;28;20019;-61
2023/01/19 07:36:19;;;;;;;13.43;4.97;;;;;;;;;;4990409;28;20038;-59
2023/01/19 07:38:44;;;;;;;12.83;4.50;;;;;;;;;;4989229;28;20022;-61
2023/01/19 07:41:09;;;;;;;12.35;4.88;;;;;;;;;;4992136;28;20065;-59
2023/01/19 07:43:35;;;;;;;15.70;5.17;;;;;;;;;;4994450;28;20022;-59
2023/01/19 07:46:01;;;;;;;12.60;5.25;;;;;;;;;;4990546;28;20112;-60
2023/01/19 07:48:26;;;;;;;14.65;5.95;;;;;;;;;;4989558;28;20025;-60
2023/01/19 07:50:51;;;;;;;13.47;5.17;;;;;;;;;;4979509;28;20105;-61
2023/01/19 07:53:16;;;;;;;14.10;4.93;;;;;;;;;;4990338;28;20034;-61
2023/01/19 07:55:42;;;;;;;11.80;5.28;;;;;;;;;;4998278;28;20041;-61
2023/01/19 07:58:07;;;;;;;12.65;5.07;;;;;;;;;;4994831;28;20439;-59
2023/01/19 08:00:36;;;;;;;13.07;4.73;;;;;;;;;;4990562;28;20184;-60
2023/01/19 08:03:02;;;;;;;10.90;4.53;;;;;;;;;;4992730;28;20069;-61
2023/01/19 08:05:30;;;;;;;15.77;5.63;;;;;;;;;;4992266;28;20026;-59
2023/01/19 08:07:59;;;;;;;13.38;5.43;;;;;;;;;;4993703;28;20025;-61
2023/01/19 08:10:25;;;;;;;12.55;5.25;;;;;;;;;;4993349;28;20101;-60
2023/01/19 08:12:53;;;;;;;15.10;5.40;;;;;;;;;;4993777;28;20022;-59
2023/01/19 08:15:21;;;;;;;13.80;4.90;;;;;;;;;;4993440;28;20077;-62
2023/01/19 08:17:52;;;;;;;15.63;5.63;;;;;;;;;;4993592;28;20169;-60
2023/01/19 08:20:17;;;;;;;13.15;4.85;;;;;;;;;;4993452;28;20026;-60
2023/01/19 08:22:45;;;;;;;16.30;5.45;;;;;;;;;;4993834;28;20476;-60
2023/01/19 08:25:10;;;;;;;13.15;4.88;;;;;;;;;;4993952;28;20108;-60
2023/01/19 08:27:36;;;;;;;12.35;4.80;;;;;;;;;;4992753;28;20050;-62
2023/01/19 08:30:01;;;;;;;15.25;5.70;;;;;;;;;;4992897;28;20027;-62
2023/01/19 08:32:26;;;;;;;13.52;5.18;;;;;;;;;;4993596;28;20045;-60
2023/01/19 08:34:51;;;;;;;14.07;5.50;;;;;;;;;;4993575;28;20121;-60
2023/01/19 08:37:16;;;;;;;13.93;5.87;;;;;;;;;;4993681;28;20014;-57
2023/01/19 08:39:41;;;;;;;13.85;4.82;;;;;;;;;;4994135;28;20126;-61
2023/01/19 08:42:06;;;;;;;15.30;5.18;;;;;;;;;;4994921;28;20018;-57
2023/01/19 08:44:32;;;;;;;13.32;4.75;;;;;;;;;;4993916;28;20484;-59
2023/01/19 08:46:57;;;;;;;14.27;5.03;;;;;;;;;;4995365;28;20018;-57
2023/01/19 08:49:22;;;;;;;13.80;4.80;;;;;;;;;;4995956;28;20029;-59
2023/01/19 08:51:48;;;;;;;12.00;4.47;;;;;;;;;;4995215;28;20026;-61
2023/01/19 08:54:14;;;;;;;13.13;4.90;;;;;;;;;;4994549;28;20117;-58
2023/01/19 08:56:39;;;;;;;14.15;4.93;;;;;;;;;;4993277;28;20018;-59
2023/01/19 08:59:04;;;;;;;11.37;4.70;;;;;;;;;;4990601;28;20426;-62
2023/01/19 09:01:29;;;;;;;15.10;5.63;;;;;;;;;;4992243;28;20475;-59
2023/01/19 09:03:55;;;;;;;13.95;5.25;;;;;;;;;;4993514;28;20080;-60
2023/01/19 09:06:20;;;;;;;13.00;4.63;;;;;;;;;;4993403;28;20069;-60
2023/01/19 09:08:45;;;;;;;13.43;5.07;;;;;;;;;;4992961;28;20821;-59
2023/01/19 09:11:11;;;;;;;13.55;5.10;;;;;;;;;;4991165;28;20599;-59
2023/01/19 09:13:37;;;;;;;13.30;4.72;;;;;;;;;;4992268;28;20084;-59
2023/01/19 09:16:02;;;;;;;11.73;4.63;;;;;;;;;;4990527;28;20114;-61
2023/01/19 09:18:28;;;;;;;12.80;4.75;;;;;;;;;;4993355;28;20471;-59
2023/01/19 09:20:56;;;;;;;12.52;5.10;;;;;;;;;;4991880;28;20048;-59
2023/01/19 09:23:21;;;;;;;11.23;4.30;;;;;;;;;;4992759;28;20053;-60
2023/01/19 09:25:46;;;;;;;12.65;5.05;;;;;;;;;;4992586;28;20484;-58
2023/01/19 09:28:13;;;;;;;10.23;4.20;;;;;;;;;;4991565;28;20034;-59
2023/01/19 09:30:39;;;;;;;11.88;4.55;;;;;;;;;;4992086;28;20033;-59
2023/01/19 09:33:06;;;;;;;10.77;4.30;;;;;;;;;;4992431;28;20018;-59
2023/01/19 09:35:34;;;;;;;11.93;4.80;;;;;;;;;;4979088;28;20511;-62
2023/01/19 09:37:59;;;;;;;11.32;4.15;;;;;;;;;;4973188;28;20583;-60
2023/01/19 09:40:25;;;;;;;8.35;3.63;;;;;;;;;;4972691;28;20074;-60
2023/01/19 09:42:55;;;;;;;9.55;3.50;;;;;;;;;;4972921;28;20050;-59
2023/01/19 09:45:30;;;;;;;9.57;4.05;;;;;;;;;;4986871;28;20099;-61
2023/01/19 09:47:55;;;;;;;11.32;3.90;;;;;;;;;;4992228;28;20117;-59
2023/01/19 09:50:26;;;;;;;10.90;4.35;;;;;;;;;;4992037;28;20077;-60
2023/01/19 09:53:00;;;;;;;10.88;4.55;;;;;;;;;;4992248;28;20022;-60
2023/01/19 09:55:26;;;;;;;13.50;5.25;;;;;;;;;;4991662;28;20120;-60
2023/01/19 09:57:52;;;;;;;11.30;4.38;;;;;;;;;;4992341;28;20021;-60
2023/01/19 10:00:17;;;;;;;10.35;3.80;;;;;;;;;;4990510;28;20028;-60
2023/01/19 10:02:50;;;;;;;10.70;4.35;;;;;;;;;;4990632;28;20010;-59
2023/01/19 10:05:34;;;;;;;11.38;4.38;;;;;;;;;;4992109;28;20044;-61
2023/01/19 10:08:08;;;;;;;13.27;4.47;;;;;;;;;;4992102;28;20030;-59
2023/01/19 10:10:34;;;;;;;9.18;3.78;;;;;;;;;;4991195;28;20483;-59
2023/01/19 10:13:14;;;;;;;10.82;4.55;;;;;;;;;;4991645;28;20019;-59
2023/01/19 10:15:55;;;;;;;10.68;4.47;;;;;;;;;;4985493;28;20387;-61
2023/01/19 10:18:33;;;;;;;10.55;4.03;;;;;;;;;;4991337;28;20057;-59
2023/01/19 10:21:01;;;;;;;10.05;4.00;;;;;;;;;;4991245;28;20030;-60
2023/01/19 10:23:35;;;;;;;11.63;4.00;;;;;;;;;;4991526;28;20101;-59
2023/01/19 10:26:03;;;;;;;10.13;4.10;;;;;;;;;;4991448;28;20014;-59
2023/01/19 10:28:28;;;;;;;9.93;4.03;;;;;;;;;;4992238;28;20105;-59
2023/01/19 10:30:54;;;;;;;15.50;4.20;;;;;;;;;;4989627;28;20105;-61
2023/01/19 10:33:20;;;;;;;12.10;4.35;;;;;;;;;;4990378;28;20472;-61
2023/01/19 10:35:47;;;;;;;13.17;4.90;;;;;;;;;;4991439;28;20084;-60
2023/01/19 10:38:13;;;;;;;12.13;4.38;;;;;;;;;;4991475;28;20412;-61
2023/01/19 10:40:46;;;;;;;10.13;4.22;;;;;;;;;;4991134;28;20030;-61
2023/01/19 10:43:30;;;;;;;9.85;4.30;;;;;;;;;;4991098;28;20052;-59
2023/01/19 10:45:55;;;;;;;11.80;4.45;;;;;;;;;;4989737;28;20412;-59
2023/01/19 10:48:20;;;;;;;10.55;4.45;;;;;;;;;;4991842;28;20106;-59
2023/01/19 10:50:46;;;;;;;13.40;4.83;;;;;;;;;;4990669;28;20373;-61
2023/01/19 10:53:21;;;;;;;12.50;4.33;;;;;;;;;;4990854;28;20024;-60
2023/01/19 10:55:46;;;;;;;11.13;4.35;;;;;;;;;;4990928;28;20502;-61
2023/01/19 10:58:26;;;;;;;9.80;4.10;;;;;;;;;;4990684;28;20102;-58
2023/01/19 11:00:51;;;;;;;12.32;4.38;;;;;;;;;;4988533;28;20585;-61
2023/01/19 11:03:22;;;;;;;10.73;4.70;;;;;;;;;;4990663;28;20018;-59
2023/01/19 11:05:47;;;;;;;10.50;4.55;;;;;;;;;;4991043;28;20022;-60
2023/01/19 11:08:26;;;;;;;10.93;4.57;;;;;;;;;;4991209;28;20017;-63
2023/01/19 11:10:55;;;;;;;11.98;4.47;;;;;;;;;;4990308;28;20026;-61
2023/01/19 11:13:20;;;;;;;11.77;4.63;;;;;;;;;;4991243;28;20170;-61
2023/01/19 11:15:53;;;;;;;11.10;4.57;;;;;;;;;;4989545;28;20507;-58
2023/01/19 11:18:27;;;;;;;9.07;4.10;;;;;;;;;;4990398;28;20053;-60
2023/01/19 11:20:53;;;;;;;13.60;4.03;;;;;;;;;;4990165;28;20109;-59
2023/01/19 11:23:23;;;;;;;11.80;4.00;;;;;;;;;;4991478;28;20057;-59
2023/01/19 11:25:49;;;;;;;13.38;4.43;;;;;;;;;;4990979;28;20026;-60
2023/01/19 11:28:19;;;;;;;11.35;4.35;;;;;;;;;;4990894;28;20387;-60
2023/01/19 11:31:01;;;;;;;10.57;4.43;;;;;;;;;;4990201;28;20022;-59
2023/01/19 11:33:34;;;;;;;12.50;4.53;;;;;;;;;;4989307;28;20464;-59
2023/01/19 11:36:03;;;;;;;10.32;4.53;;;;;;;;;;4989442;28;20161;-60
2023/01/19 11:38:28;;;;;;;11.65;4.78;;;;;;;;;;4990562;28;20105;-58
2023/01/19 11:40:55;;;;;;;13.37;4.70;;;;;;;;;;4987633;28;20177;-58
2023/01/19 11:43:22;;;;;;;13.32;5.15;;;;;;;;;;4990479;28;20444;-60
2023/01/19 11:45:47;;;;;;;13.25;4.82;;;;;;;;;;4990671;28;20018;-60
2023/01/19 11:48:17;;;;;;;13.10;4.83;;;;;;;;;;4989994;28;20080;-62
2023/01/19 11:50:43;;;;;;;10.60;4.63;;;;;;;;;;4990090;28;20050;-64
2023/01/19 11:53:11;;;;;;;12.98;4.93;;;;;;;;;;4991003;28;20080;-61
2023/01/19 11:55:47;;;;;;;16.08;4.78;;;;;;;;;;4990784;28;20080;-63
2023/01/19 11:58:14;;;;;;;10.40;4.38;;;;;;;;;;4990664;28;20472;-63
2023/01/19 12:00:43;;;;;;;11.02;5.15;;;;;;;;;;4990186;28;20105;-63
2023/01/19 12:03:13;;;;;;;13.18;4.25;;;;;;;;;;4990578;28;20065;-64
2023/01/19 12:05:39;;;;;;;13.50;5.00;;;;;;;;;;4986213;28;20027;-62
2023/01/19 12:08:08;;;;;;;12.07;4.28;;;;;;;;;;4989814;28;20058;-61
2023/01/19 12:10:36;;;;;;;10.80;4.10;;;;;;;;;;4991804;28;20029;-60
2023/01/19 12:13:02;;;;;;;10.52;4.57;;;;;;;;;;4992568;28;20089;-65
2023/01/19 12:15:34;;;;;;;11.60;4.40;;;;;;;;;;4992452;28;20034;-61
2023/01/19 12:18:00;;;;;;;10.55;4.32;;;;;;;;;;4991955;28;20041;-61
2023/01/19 12:20:29;;;;;;;11.50;4.50;;;;;;;;;;4985168;28;20022;-61
2023/01/19 12:23:02;;;;;;;9.55;3.80;;;;;;;;;;4990210;28;20343;-60
2023/01/19 12:25:36;;;;;;;6.65;2.92;;;;;;;;;;4990263;28;20023;-60
2023/01/19 12:28:01;;;;;;;8.40;3.03;;;;;;;;;;4993688;28;20398;-63
2023/01/19 12:30:28;;;;;;;5.93;2.50;;;;;;;;;;4992264;28;20109;-60
2023/01/19 12:33:12;;;;;;;7.30;2.47;;;;;;;;;;4993547;28;20022;-60
2023/01/19 12:35:56;;;;;;;5.78;2.40;;;;;;;;;;4993552;28;20030;-60
2023/01/19 12:38:40;;;;;;;7.72;2.80;;;;;;;;;;4994001;28;20101;-60
2023/01/19 12:41:15;;;;;;;6.85;2.13;;;;;;;;;;4993124;28;20026;-60
2023/01/19 12:43:41;;;;;;;5.90;2.40;;;;;;;;;;4992103;28;20018;-62
2023/01/19 12:46:27;;;;;;;8.77;2.47;;;;;;;;;;4993088;28;20413;-63
2023/01/19 12:48:52;;;;;;;5.97;2.20;;;;;;;;;;4989014;28;20049;-60
2023/01/19 12:51:21;;;;;;;6.13;2.40;;;;;;;;;;4993035;28;20381;-60
2023/01/19 12:53:53;;;;;;;7.57;2.58;;;;;;;;;;4993203;28;20049;-60
2023/01/19 12:56:19;;;;;;;5.80;2.10;;;;;;;;;;4992218;28;20045;-61
2023/01/19 12:58:48;;;;;;;6.10;2.10;;;;;;;;;;4992922;28;20091;-60
2023/01/19 13:01:15;;;;;;;5.82;1.95;;;;;;;;;;4992855;28;20431;-60
2023/01/19 13:03:42;;;;;;;8.15;2.30;;;;;;;;;;4993275;28;20023;-63
2023/01/19 13:06:07;;;;;;;7.13;2.15;;;;;;;;;;4992883;28;20033;-61
2023/01/19 13:08:51;;;;;;;5.27;2.03;;;;;;;;;;4993397;28;20023;-62
2023/01/19 13:11:17;;;;;;;6.18;1.90;;;;;;;;;;4992450;28;20031;-60
2023/01/19 13:14:02;;;;;;;6.38;2.30;;;;;;;;;;4991771;28;20030;-62
2023/01/19 13:16:27;;;;;;;6.15;2.38;;;;;;;;;;4950406;28;20045;-63
2023/01/19 13:18:57;;;;;;;7.22;1.88;;;;;;;;;;4988993;28;20049;-59
2023/01/19 13:21:30;;;;;;;6.10;2.15;;;;;;;;;;4991921;28;20391;-59
2023/01/19 13:23:56;;;;;;;5.55;1.98;;;;;;;;;;4992717;28;20491;-60
2023/01/19 13:26:22;;;;;;;7.07;2.03;;;;;;;;;;4992509;28;20448;-67
2023/01/19 13:28:50;;;;;;;5.20;1.80;;;;;;;;;;4992977;28;20105;-60
2023/01/19 13:31:15;;;;;;;4.88;1.75;;;;;;;;;;4992269;28;20031;-61
2023/01/19 13:33:53;;;;;;;7.73;2.20;;;;;;;;;;4992554;28;20033;-61
2023/01/19 13:36:21;;;;;;;4.47;1.77;;;;;;;;;;4994612;28;20048;-60
2023/01/19 13:38:47;;;;;;;7.65;1.88;;;;;;;;;;4999651;28;20426;-61
2023/01/19 13:41:17;;;;;;;6.70;2.10;;;;;;;;;;4992976;28;20019;-60
2023/01/19 13:43:42;;;;;;;5.82;2.22;;;;;;;;;;5012114;28;20022;-61
2023/01/19 13:46:10;;;;;;;5.37;2.00;;;;;;;;;;5012206;28;20068;-63
2023/01/19 13:48:35;;;;;;;5.22;2.13;;;;;;;;;;5012247;28;20421;-59
2023/01/19 13:51:04;;;;;;;6.68;2.08;;;;;;;;;;5005099;28;20049;-60
2023/01/19 13:53:30;;;;;;;6.93;2.28;;;;;;;;;;4980519;28;20444;-60
2023/01/19 13:56:05;;;;;;;6.45;2.15;;;;;;;;;;4989031;28;20089;-59
2023/01/19 13:58:31;;;;;;;6.78;2.20;;;;;;;;;;4992494;28;20033;-62
2023/01/19 14:00:56;;;;;;;7.20;2.13;;;;;;;;;;4991670;28;20022;-60
2023/01/19 14:03:22;;;;;;;5.82;2.08;;;;;;;;;;4993811;28;20029;-62
2023/01/19 14:05:51;;;;;;;5.55;1.77;;;;;;;;;;5011417;28;20714;-62
2023/01/19 14:08:18;;;;;;;6.38;2.50;;;;;;;;;;4995356;28;20023;-61
2023/01/19 14:10:44;;;;;;;5.63;1.60;;;;;;;;;;4991532;28;20021;-60
2023/01/19 14:13:15;;;;;;;5.30;2.00;;;;;;;;;;4991448;28;20052;-63
2023/01/19 14:15:41;;;;;;;4.55;1.60;;;;;;;;;;4991495;28;20032;-60
2023/01/19 14:18:26;;;;;;;7.85;1.95;;;;;;;;;;4990336;28;20054;-67
2023/01/19 14:20:51;;;;;;;8.95;2.50;;;;;;;;;;4991190;28;20036;-60
2023/01/19 14:23:35;;;;;;;11.75;2.22;;;;;;;;;;4995982;28;20018;-60
2023/01/19 14:26:00;;;;;;;7.35;2.17;;;;;;;;;;5010914;28;20026;-61
2023/01/19 14:28:39;;;;;;;6.63;2.17;;;;;;;;;;5010568;28;20408;-61
2023/01/19 14:31:26;;;;;;;7.00;2.10;;;;;;;;;;4992707;28;20113;-59
2023/01/19 14:33:52;;;;;;;7.45;2.55;;;;;;;;;;4991411;28;20105;-58
2023/01/19 14:36:25;;;;;;;6.75;2.40;;;;;;;;;;4991200;28;20432;-63
2023/01/19 14:38:50;;;;;;;8.77;2.40;;;;;;;;;;4988929;28;20026;-63
2023/01/19 14:41:23;;;;;;;9.98;2.50;;;;;;;;;;4991945;28;20057;-62
2023/01/19 14:43:49;;;;;;;8.88;3.20;;;;;;;;;;4992123;28;20475;-59
2023/01/19 14:46:16;;;;;;;12.37;3.57;;;;;;;;;;4991290;28;20033;-59